Time;durP1;ratioP1;P1;durP2;ratioP2;P2;SDS_P1;SDS_P2;PMS_P1;PMS_P2;Temp;Humidity;BMP_temperature;BMP_pressure;BME280_temperature;BME280_humidity;BME280_pressure;Samples;Min_cycle;Max_cycle;Signal;HPM_P1;HPM_P2
2022/04/30 00:02:16;;;;;;;8.52;5.30;;;8.60;99.90;;;;;;5063316;28;20028;-84
2022/04/30 00:04:46;;;;;;;18.00;6.50;;;8.50;99.90;;;;;;5082671;28;20400;-83
2022/04/30 00:07:13;;;;;;;10.10;5.47;;;8.50;99.90;;;;;;5066112;28;20026;-82
2022/04/30 00:09:39;;;;;;;10.98;5.43;;;8.60;99.90;;;;;;5075175;28;20025;-83
2022/04/30 00:12:05;;;;;;;13.40;5.82;;;8.50;99.90;;;;;;5063807;28;20111;-81
2022/04/30 00:14:31;;;;;;;11.88;5.55;;;8.50;99.90;;;;;;5043757;28;20052;-84
2022/04/30 00:16:57;;;;;;;9.35;5.60;;;8.50;99.90;;;;;;5063610;28;20108;-83
2022/04/30 00:19:23;;;;;;;12.35;6.07;;;8.50;99.90;;;;;;5044532;28;20156;-82
2022/04/30 00:21:50;;;;;;;10.45;6.03;;;8.40;99.90;;;;;;5046158;28;20028;-83
2022/04/30 00:24:15;;;;;;;8.18;5.68;;;8.40;99.90;;;;;;5046242;28;20059;-84
2022/04/30 00:26:41;;;;;;;11.45;5.93;;;8.40;99.90;;;;;;5063960;28;20029;-82
2022/04/30 00:29:07;;;;;;;11.38;5.65;;;8.40;99.90;;;;;;5064891;28;20086;-83
2022/04/30 00:31:37;;;;;;;10.25;5.70;;;8.30;99.90;;;;;;5071456;28;20016;-80
2022/04/30 00:34:03;;;;;;;15.35;6.55;;;8.30;99.90;;;;;;5056594;28;20040;-84
2022/04/30 00:36:28;;;;;;;10.95;5.88;;;8.20;99.90;;;;;;5064182;28;20108;-83
2022/04/30 00:38:55;;;;;;;10.50;6.18;;;8.20;99.90;;;;;;5063693;28;20040;-83
2022/04/30 00:41:21;;;;;;;10.30;6.38;;;8.10;99.90;;;;;;5065019;28;20021;-85
2022/04/30 00:43:54;;;;;;;9.70;6.43;;;8.10;99.90;;;;;;5049371;28;20032;-81
2022/04/30 00:46:24;;;;;;;8.63;6.00;;;8.10;99.90;;;;;;5071522;28;20024;-84
2022/04/30 00:48:50;;;;;;;10.07;6.25;;;8.10;99.90;;;;;;5072020;28;20029;-83
2022/04/30 00:51:19;;;;;;;11.30;5.50;;;8.10;99.90;;;;;;5064867;28;20025;-84
2022/04/30 00:53:47;;;;;;;9.57;5.50;;;8.10;99.90;;;;;;5064510;28;20094;-84
2022/04/30 00:56:14;;;;;;;11.00;5.80;;;8.10;99.90;;;;;;5047209;28;20051;-84
2022/04/30 00:58:41;;;;;;;11.23;6.28;;;8.00;99.90;;;;;;5066871;28;20032;-84
2022/04/30 01:01:08;;;;;;;10.55;5.68;;;8.00;99.90;;;;;;5049689;28;20078;-82
2022/04/30 01:03:34;;;;;;;11.40;5.57;;;7.90;99.90;;;;;;5062907;28;20028;-84
2022/04/30 01:06:00;;;;;;;12.00;6.25;;;7.80;99.90;;;;;;5061846;28;20131;-83
2022/04/30 01:08:29;;;;;;;13.98;6.18;;;7.80;99.90;;;;;;5062777;28;20029;-84
2022/04/30 01:10:56;;;;;;;11.80;6.82;;;7.70;99.90;;;;;;5062278;28;20473;-83
2022/04/30 01:13:23;;;;;;;16.92;7.38;;;7.70;99.90;;;;;;5061260;28;20550;-84
2022/04/30 01:15:50;;;;;;;14.35;6.88;;;7.60;99.90;;;;;;5061406;28;20021;-82
2022/04/30 01:18:16;;;;;;;11.70;6.65;;;7.60;99.90;;;;;;5062354;28;20028;-84
2022/04/30 01:20:51;;;;;;;13.88;5.97;;;7.60;99.90;;;;;;5060992;28;20025;-84
2022/04/30 01:23:18;;;;;;;13.50;5.93;;;7.60;99.90;;;;;;5059258;28;20509;-84
2022/04/30 01:25:46;;;;;;;12.75;6.93;;;7.70;99.90;;;;;;5059639;28;20082;-84
2022/04/30 01:28:12;;;;;;;11.82;6.32;;;7.60;99.90;;;;;;5042562;28;20025;-84
2022/04/30 01:30:38;;;;;;;9.65;7.07;;;7.60;99.90;;;;;;5043264;28;20045;-85
2022/04/30 01:38:32;;;;;;;10.60;6.50;;;7.40;99.90;;;;;;5058790;28;20035;-83
2022/04/30 01:40:59;;;;;;;11.57;6.18;;;7.30;99.90;;;;;;5060714;28;20044;-83
2022/04/30 01:43:25;;;;;;;12.60;6.35;;;7.20;99.90;;;;;;5060009;28;20028;-82
2022/04/30 01:45:52;;;;;;;12.15;5.65;;;7.10;99.90;;;;;;5059383;28;20017;-85
2022/04/30 01:48:19;;;;;;;13.15;6.28;;;7.10;99.90;;;;;;5040689;28;20029;-84
2022/04/30 01:50:44;;;;;;;13.05;6.70;;;7.10;99.90;;;;;;5060742;28;20082;-83
2022/04/30 01:53:11;;;;;;;11.82;6.40;;;7.10;99.90;;;;;;5059219;28;20053;-81
2022/04/30 01:55:37;;;;;;;9.45;5.95;;;7.00;99.90;;;;;;5059242;28;20105;-83
2022/04/30 01:58:03;;;;;;;9.73;5.90;;;7.00;99.90;;;;;;5040114;28;20060;-83
2022/04/30 02:00:30;;;;;;;11.70;5.78;;;7.00;99.90;;;;;;5041505;28;20339;-83
2022/04/30 02:03:08;;;;;;;9.77;6.22;;;6.90;99.90;;;;;;5041150;28;20017;-83
2022/04/30 02:05:36;;;;;;;12.32;6.25;;;6.80;99.90;;;;;;5040599;28;20033;-84
2022/04/30 02:08:10;;;;;;;10.48;5.97;;;6.80;99.90;;;;;;5042257;28;20035;-83
2022/04/30 02:10:37;;;;;;;14.35;6.32;;;6.80;99.90;;;;;;5073680;28;20016;-84
2022/04/30 02:13:06;;;;;;;9.32;5.88;;;6.80;99.90;;;;;;5080336;28;20039;-83
2022/04/30 02:15:33;;;;;;;10.70;5.57;;;6.80;99.90;;;;;;5079378;28;20025;-82
2022/04/30 02:18:00;;;;;;;12.77;6.13;;;6.70;99.90;;;;;;5080394;28;20108;-80
2022/04/30 02:20:29;;;;;;;11.43;6.45;;;6.70;99.90;;;;;;5079500;28;20028;-81
2022/04/30 02:22:57;;;;;;;9.60;6.13;;;6.70;99.90;;;;;;5061321;28;20392;-83
2022/04/30 02:25:24;;;;;;;11.07;5.47;;;6.60;99.90;;;;;;5061513;28;20045;-82
2022/04/30 02:27:52;;;;;;;7.35;5.10;;;6.60;99.90;;;;;;5079463;28;20028;-83
2022/04/30 02:30:23;;;;;;;11.18;5.80;;;6.60;99.90;;;;;;5061603;28;20162;-82
2022/04/30 02:32:53;;;;;;;11.07;5.82;;;6.60;99.90;;;;;;5061014;28;20024;-81
2022/04/30 02:35:22;;;;;;;9.13;5.35;;;6.60;99.90;;;;;;5062064;28;20025;-83
2022/04/30 02:37:50;;;;;;;9.45;5.50;;;6.50;99.90;;;;;;5062712;28;20036;-82
2022/04/30 02:40:17;;;;;;;10.85;5.50;;;6.40;99.90;;;;;;5087833;28;20070;-82
2022/04/30 02:42:44;;;;;;;12.02;6.10;;;6.40;99.90;;;;;;5075884;28;20064;-79
2022/04/30 02:45:11;;;;;;;10.77;5.22;;;6.40;99.90;;;;;;5077475;28;20028;-81
2022/04/30 02:47:41;;;;;;;10.52;5.57;;;6.40;99.90;;;;;;5095629;28;20017;-83
2022/04/30 02:50:08;;;;;;;10.82;5.68;;;6.40;99.90;;;;;;5093930;28;20080;-82
2022/04/30 02:52:35;;;;;;;9.88;6.10;;;6.30;99.90;;;;;;5094375;28;20035;-83
2022/04/30 02:55:01;;;;;;;9.13;5.78;;;6.30;99.90;;;;;;5090969;28;20024;-80
2022/04/30 02:57:38;;;;;;;10.68;5.57;;;6.20;99.90;;;;;;5070162;28;20040;-82
2022/04/30 03:00:08;;;;;;;13.40;6.78;;;6.10;99.90;;;;;;5083876;28;20103;-83
2022/04/30 03:02:34;;;;;;;12.02;7.00;;;6.00;99.90;;;;;;5083203;28;20108;-82
2022/04/30 03:05:00;;;;;;;12.32;6.47;;;6.00;99.90;;;;;;5064748;28;20028;-82
2022/04/30 03:07:25;;;;;;;24.80;7.47;;;5.80;99.90;;;;;;5081349;28;20032;-82
2022/04/30 03:09:51;;;;;;;16.15;8.05;;;5.80;99.90;;;;;;5062759;28;20049;-81
2022/04/30 03:12:17;;;;;;;11.10;6.82;;;5.80;99.90;;;;;;5075335;28;20033;-80
2022/04/30 03:14:43;;;;;;;12.68;7.28;;;5.70;99.90;;;;;;5055398;28;20029;-80
2022/04/30 03:22:39;;;;;;;12.60;7.25;;;5.50;99.90;;;;;;5062505;28;20082;-85
2022/04/30 03:25:06;;;;;;;12.50;6.53;;;5.50;99.90;;;;;;5044048;28;20513;-85
2022/04/30 03:27:32;;;;;;;12.50;7.10;;;5.40;99.90;;;;;;5062907;28;20112;-86
2022/04/30 03:29:58;;;;;;;15.10;7.07;;;5.40;99.90;;;;;;5045095;28;20033;-82
2022/04/30 03:32:24;;;;;;;12.13;7.63;;;5.40;99.90;;;;;;5063652;28;20121;-85
2022/04/30 03:34:51;;;;;;;10.30;7.28;;;5.40;99.90;;;;;;5062881;28;20096;-84
2022/04/30 03:37:17;;;;;;;14.82;7.18;;;5.40;99.90;;;;;;5042602;28;20456;-83
2022/04/30 03:39:44;;;;;;;12.13;6.15;;;5.50;99.90;;;;;;5061008;28;20013;-85
2022/04/30 03:42:10;;;;;;;12.82;6.55;;;5.50;99.90;;;;;;5060953;28;20458;-85
2022/04/30 03:44:35;;;;;;;14.02;7.28;;;5.60;99.90;;;;;;5042913;28;20021;-84
2022/04/30 03:47:01;;;;;;;11.70;6.72;;;5.60;99.90;;;;;;5041986;28;20024;-83
2022/04/30 03:49:26;;;;;;;13.48;7.20;;;5.60;99.90;;;;;;5042029;28;20480;-82
2022/04/30 03:51:54;;;;;;;11.60;6.40;;;5.60;99.90;;;;;;5042297;28;20025;-83
2022/04/30 03:54:20;;;;;;;10.88;6.20;;;5.60;99.90;;;;;;5060323;28;20421;-83
2022/04/30 03:56:46;;;;;;;15.25;7.30;;;5.60;99.90;;;;;;5060680;28;20100;-84
2022/04/30 03:59:11;;;;;;;10.38;6.55;;;5.60;99.90;;;;;;5041569;28;20025;-83
2022/04/30 04:01:38;;;;;;;10.90;7.25;;;5.60;99.90;;;;;;5041746;28;20526;-82
2022/04/30 04:04:04;;;;;;;11.23;7.15;;;5.70;99.90;;;;;;5059760;28;20027;-84
2022/04/30 04:06:31;;;;;;;13.82;6.93;;;5.80;99.90;;;;;;5060096;28;20104;-84
2022/04/30 04:08:59;;;;;;;13.15;7.47;;;5.80;99.90;;;;;;5060828;28;20469;-82
2022/04/30 04:11:26;;;;;;;12.85;7.82;;;5.80;99.90;;;;;;5061459;28;20475;-83
2022/04/30 04:19:23;;;;;;;11.50;6.65;;;5.80;99.90;;;;;;5079489;28;20051;-83
2022/04/30 04:21:50;;;;;;;12.13;7.45;;;5.70;99.90;;;;;;5078031;28;20024;-83
2022/04/30 04:27:01;;;;;;;12.90;7.22;;;5.50;99.90;;;;;;5079554;28;20036;-85
2022/04/30 04:29:26;;;;;;;11.40;7.47;;;5.40;99.90;;;;;;5079097;28;20046;-84
2022/04/30 04:31:52;;;;;;;13.18;7.43;;;5.40;99.90;;;;;;5079849;28;20017;-84
2022/04/30 04:34:17;;;;;;;13.50;7.47;;;5.40;99.90;;;;;;5078451;28;20373;-85
2022/04/30 04:36:43;;;;;;;14.07;7.13;;;5.40;99.90;;;;;;5060444;28;20086;-84
2022/04/30 04:39:14;;;;;;;16.88;7.93;;;5.40;99.90;;;;;;5078703;28;20143;-85
2022/04/30 04:41:42;;;;;;;12.48;7.32;;;5.40;99.90;;;;;;5060746;28;20028;-84
2022/04/30 04:44:08;;;;;;;15.13;6.97;;;5.50;99.90;;;;;;5060898;28;20060;-83
2022/04/30 04:46:34;;;;;;;11.30;7.00;;;5.50;99.90;;;;;;5078924;28;20540;-85
2022/04/30 04:49:00;;;;;;;13.18;7.20;;;5.50;99.90;;;;;;5079352;28;20039;-84
2022/04/30 04:51:27;;;;;;;13.82;7.50;;;5.50;99.90;;;;;;5061935;28;20610;-85
2022/04/30 04:53:52;;;;;;;13.15;7.15;;;5.50;99.90;;;;;;5062744;28;20048;-83
2022/04/30 04:56:18;;;;;;;17.38;8.30;;;5.60;99.90;;;;;;5063218;28;20055;-84
2022/04/30 04:58:43;;;;;;;12.43;7.90;;;5.60;99.90;;;;;;5079639;28;20040;-79
2022/04/30 05:01:09;;;;;;;15.60;7.72;;;5.70;99.90;;;;;;5084366;28;20047;-84
2022/04/30 05:03:35;;;;;;;12.38;8.50;;;5.80;99.90;;;;;;5059502;28;20025;-84
2022/04/30 05:06:00;;;;;;;14.57;7.65;;;5.80;99.90;;;;;;5077459;28;20037;-83
2022/04/30 05:08:26;;;;;;;16.45;8.88;;;5.90;99.90;;;;;;5060385;28;20060;-83
2022/04/30 05:10:51;;;;;;;11.50;8.15;;;6.00;99.90;;;;;;5062321;28;20029;-83
2022/04/30 05:13:17;;;;;;;15.82;8.13;;;6.00;99.90;;;;;;5040076;28;20108;-81
2022/04/30 05:15:43;;;;;;;10.77;7.95;;;6.00;99.90;;;;;;5040031;28;20044;-84
2022/04/30 05:18:08;;;;;;;12.55;7.13;;;6.00;99.90;;;;;;5057774;28;20021;-84
2022/04/30 05:20:34;;;;;;;19.63;8.02;;;6.10;99.90;;;;;;5057763;28;20028;-84
2022/04/30 05:23:00;;;;;;;18.90;8.18;;;6.10;99.90;;;;;;5057926;28;20033;-84
2022/04/30 05:25:25;;;;;;;12.35;7.55;;;6.10;99.90;;;;;;5057335;28;20029;-82
2022/04/30 05:27:52;;;;;;;12.68;7.60;;;6.20;99.90;;;;;;5057778;28;20028;-84
2022/04/30 05:30:18;;;;;;;11.98;8.25;;;6.30;99.90;;;;;;5060203;28;20025;-81
2022/04/30 05:32:44;;;;;;;13.65;7.93;;;6.40;99.90;;;;;;5058080;28;20029;-84
2022/04/30 05:35:10;;;;;;;13.07;7.55;;;6.50;99.90;;;;;;5058635;28;20504;-84
2022/04/30 05:37:35;;;;;;;16.50;8.32;;;6.60;99.90;;;;;;5041333;28;20165;-85
2022/04/30 05:40:01;;;;;;;14.55;8.45;;;6.80;99.90;;;;;;5060122;28;20116;-83
2022/04/30 05:42:26;;;;;;;13.77;8.43;;;6.90;99.90;;;;;;5073356;28;20035;-82
2022/04/30 05:44:52;;;;;;;11.95;6.53;;;7.00;99.90;;;;;;5051645;28;20032;-80
2022/04/30 05:47:19;;;;;;;16.70;8.43;;;7.20;99.90;;;;;;5063878;28;20040;-83
2022/04/30 05:49:45;;;;;;;12.27;6.55;;;7.20;99.90;;;;;;5039245;28;20028;-82
2022/04/30 05:52:11;;;;;;;12.15;7.13;;;7.30;99.90;;;;;;5057358;28;20017;-82
2022/04/30 05:54:37;;;;;;;11.60;6.47;;;7.30;99.90;;;;;;5057364;28;20024;-85
2022/04/30 05:57:03;;;;;;;16.33;7.60;;;7.40;99.90;;;;;;5058641;28;20028;-84
2022/04/30 05:59:29;;;;;;;14.25;6.72;;;7.40;99.90;;;;;;5040539;28;20021;-84
2022/04/30 06:01:55;;;;;;;12.10;6.78;;;7.50;99.90;;;;;;5040877;28;20028;-83
2022/04/30 06:04:21;;;;;;;16.80;7.35;;;7.40;99.90;;;;;;5060074;28;20029;-82
2022/04/30 06:06:47;;;;;;;13.95;6.40;;;7.50;99.90;;;;;;5059358;28;20021;-83
2022/04/30 06:09:13;;;;;;;13.05;6.78;;;7.60;99.90;;;;;;5061805;28;20435;-82
2022/04/30 06:11:39;;;;;;;10.55;6.25;;;7.60;99.90;;;;;;5076082;28;20098;-82
2022/04/30 06:14:05;;;;;;;16.88;7.18;;;7.60;99.90;;;;;;5057619;28;20028;-83
2022/04/30 06:16:31;;;;;;;12.60;6.25;;;7.60;99.90;;;;;;5075924;28;20046;-83
2022/04/30 06:18:56;;;;;;;13.75;6.32;;;7.70;99.90;;;;;;5057584;28;20481;-83
2022/04/30 06:21:23;;;;;;;15.55;6.28;;;7.90;99.90;;;;;;5057208;28;20016;-82
2022/04/30 06:23:50;;;;;;;12.45;6.18;;;8.00;99.90;;;;;;5075887;28;20017;-81
2022/04/30 06:26:15;;;;;;;15.15;6.30;;;8.10;99.90;;;;;;5075927;28;20021;-81
2022/04/30 06:28:41;;;;;;;10.90;6.03;;;8.20;99.90;;;;;;5075451;28;20039;-83
2022/04/30 06:31:06;;;;;;;15.50;7.18;;;8.30;99.90;;;;;;5058417;28;20304;-85
2022/04/30 06:33:32;;;;;;;17.83;5.93;;;8.20;99.90;;;;;;5058063;28;20520;-85
2022/04/30 06:35:58;;;;;;;14.32;6.10;;;8.30;99.90;;;;;;5056287;28;20484;-84
2022/04/30 06:38:24;;;;;;;8.98;5.90;;;8.40;99.90;;;;;;5038198;28;20485;-84
2022/04/30 06:40:52;;;;;;;13.63;5.50;;;8.70;99.90;;;;;;5055823;28;20025;-84
2022/04/30 06:43:18;;;;;;;9.45;5.05;;;8.90;99.90;;;;;;5055488;28;20100;-84
2022/04/30 06:45:43;;;;;;;11.18;5.72;;;9.00;99.90;;;;;;5037314;28;20056;-82
2022/04/30 06:48:09;;;;;;;15.10;6.05;;;9.10;99.90;;;;;;5055689;28;20025;-84
2022/04/30 06:50:35;;;;;;;9.57;5.00;;;9.40;99.90;;;;;;5037621;28;20500;-83
2022/04/30 06:58:40;;;;;;;12.38;5.55;;;10.30;99.90;;;;;;5056909;28;20138;-84
2022/04/30 07:03:55;;;;;;;11.20;6.57;;;10.40;99.90;;;;;;5057099;28;20039;-86
2022/04/30 07:06:21;;;;;;;11.07;6.53;;;10.50;99.90;;;;;;5059094;28;20025;-83
2022/04/30 07:08:46;;;;;;;11.48;6.25;;;10.40;99.90;;;;;;5059741;28;20029;-82
2022/04/30 07:11:14;;;;;;;15.98;7.10;;;10.70;99.90;;;;;;5058553;28;20028;-81
2022/04/30 07:13:40;;;;;;;11.52;6.85;;;10.80;99.90;;;;;;5060803;28;20025;-84
2022/04/30 07:16:05;;;;;;;11.93;6.47;;;10.80;99.90;;;;;;5055923;28;20087;-83
2022/04/30 07:18:31;;;;;;;12.00;6.72;;;11.20;99.90;;;;;;5056320;28;20101;-82
2022/04/30 07:20:56;;;;;;;12.18;6.90;;;11.10;99.90;;;;;;5037715;28;20481;-81
2022/04/30 07:23:22;;;;;;;12.95;8.70;;;11.00;99.90;;;;;;5055942;28;20025;-83
2022/04/30 07:25:48;;;;;;;13.25;8.55;;;10.90;99.90;;;;;;5056718;28;20028;-82
2022/04/30 07:28:14;;;;;;;14.43;9.18;;;10.60;99.90;;;;;;5037703;28;20033;-85
2022/04/30 07:30:40;;;;;;;17.52;9.52;;;10.20;99.90;;;;;;5038062;28;20499;-81
2022/04/30 07:33:07;;;;;;;12.60;8.00;;;10.10;99.90;;;;;;5037601;28;20032;-85
2022/04/30 07:35:32;;;;;;;11.98;7.75;;;10.10;99.90;;;;;;5037291;28;20029;-84
2022/04/30 07:37:58;;;;;;;12.45;8.05;;;10.60;99.90;;;;;;5055785;28;20055;-82
2022/04/30 07:40:24;;;;;;;12.15;6.55;;;11.30;99.90;;;;;;5056348;28;20029;-81
2022/04/30 07:42:50;;;;;;;12.10;5.80;;;12.00;99.90;;;;;;5055557;28;20028;-85
2022/04/30 07:45:16;;;;;;;8.52;5.28;;;12.20;99.90;;;;;;5055761;28;20040;-81
2022/04/30 07:47:42;;;;;;;8.35;4.63;;;12.40;99.90;;;;;;5037752;28;20110;-82
2022/04/30 07:50:08;;;;;;;7.55;4.95;;;12.90;99.90;;;;;;5038555;28;20610;-82
2022/04/30 07:52:33;;;;;;;7.70;4.90;;;13.20;99.90;;;;;;5056789;28;20033;-84
2022/04/30 07:55:02;;;;;;;11.30;5.18;;;13.20;99.90;;;;;;5056647;28;20029;-83
2022/04/30 07:57:28;;;;;;;8.27;4.65;;;13.40;99.90;;;;;;5058055;28;20028;-83
2022/04/30 07:59:54;;;;;;;7.20;4.57;;;13.00;99.90;;;;;;5059716;28;20041;-83
2022/04/30 08:02:19;;;;;;;5.97;4.20;;;12.40;99.90;;;;;;5040858;28;20263;-83
2022/04/30 08:04:45;;;;;;;6.88;4.50;;;12.00;99.90;;;;;;5041659;28;20033;-84
2022/04/30 08:07:11;;;;;;;7.25;4.32;;;12.00;99.90;;;;;;5059984;28;20450;-83
2022/04/30 08:09:37;;;;;;;6.35;4.65;;;12.80;99.90;;;;;;5065684;28;20013;-83
2022/04/30 08:12:03;;;;;;;10.35;4.82;;;13.70;99.90;;;;;;5080622;28;20024;-84
2022/04/30 08:14:29;;;;;;;6.20;3.28;;;13.50;99.90;;;;;;5080255;28;20029;-85
2022/04/30 08:16:54;;;;;;;6.70;4.63;;;13.90;97.20;;;;;;5062348;28;20479;-82
2022/04/30 08:19:20;;;;;;;7.55;4.13;;;13.90;95.30;;;;;;5080677;28;20076;-83
2022/04/30 08:21:48;;;;;;;6.07;3.30;;;13.50;94.30;;;;;;5080296;28;20023;-85
2022/04/30 08:24:15;;;;;;;7.60;4.05;;;12.80;94.40;;;;;;5080135;28;20017;-84
2022/04/30 08:26:40;;;;;;;4.85;3.30;;;12.40;97.70;;;;;;5081040;28;20048;-84
2022/04/30 08:29:06;;;;;;;7.20;3.63;;;12.10;98.50;;;;;;5068117;28;20020;-79
2022/04/30 08:31:33;;;;;;;6.25;3.20;;;11.80;99.90;;;;;;5080208;28;20024;-81
2022/04/30 08:33:59;;;;;;;6.90;4.40;;;11.50;99.90;;;;;;5097639;28;20096;-81
2022/04/30 08:36:24;;;;;;;7.95;5.30;;;11.20;99.90;;;;;;5090520;28;20032;-82
2022/04/30 08:38:50;;;;;;;6.97;4.25;;;11.20;99.90;;;;;;5062412;28;20021;-83
2022/04/30 08:41:16;;;;;;;6.43;4.25;;;11.10;99.90;;;;;;5063201;28;20020;-86
2022/04/30 08:43:47;;;;;;;8.15;4.05;;;11.20;99.90;;;;;;5062957;28;20472;-86
2022/04/30 08:46:13;;;;;;;6.65;4.35;;;11.30;99.90;;;;;;5080866;28;20445;-82
2022/04/30 08:48:38;;;;;;;7.90;3.53;;;11.50;99.90;;;;;;5062038;28;20099;-83
2022/04/30 08:51:04;;;;;;;9.43;4.70;;;11.60;99.90;;;;;;5060884;28;20078;-83
2022/04/30 08:53:30;;;;;;;9.70;4.13;;;12.10;99.90;;;;;;5079314;28;20033;-84
2022/04/30 08:55:56;;;;;;;9.20;4.13;;;12.30;99.90;;;;;;5079030;28;20021;-82
2022/04/30 08:58:21;;;;;;;9.40;3.83;;;12.80;99.90;;;;;;5079289;28;20025;-84
2022/04/30 09:00:50;;;;;;;6.75;3.80;;;12.80;99.70;;;;;;5062762;28;20088;-84
2022/04/30 09:03:18;;;;;;;6.82;3.58;;;12.40;99.90;;;;;;5080567;28;20092;-82
2022/04/30 09:05:44;;;;;;;5.95;4.35;;;12.20;99.90;;;;;;5080269;28;20088;-81
2022/04/30 09:08:10;;;;;;;5.50;4.05;;;12.00;99.90;;;;;;5079826;28;20021;-83
2022/04/30 09:10:37;;;;;;;6.53;3.90;;;11.90;99.90;;;;;;5065755;28;20025;-83
2022/04/30 09:13:04;;;;;;;5.65;3.25;;;11.90;99.90;;;;;;5042099;28;20047;-82
2022/04/30 09:15:31;;;;;;;6.40;3.85;;;12.00;99.90;;;;;;5059997;28;20033;-80
2022/04/30 09:18:02;;;;;;;7.07;4.78;;;12.10;99.90;;;;;;5041730;28;20045;-82
2022/04/30 09:20:29;;;;;;;9.30;5.07;;;12.90;99.70;;;;;;5059911;28;20021;-83
2022/04/30 09:22:56;;;;;;;9.52;4.72;;;14.00;96.20;;;;;;5060092;28;20552;-82
2022/04/30 09:25:23;;;;;;;7.38;4.53;;;14.80;91.90;;;;;;5074264;28;20094;-82
2022/04/30 09:27:54;;;;;;;7.72;4.75;;;15.50;87.30;;;;;;5065203;28;20449;-82
2022/04/30 09:30:24;;;;;;;7.13;4.03;;;16.00;82.10;;;;;;5041632;28;20028;-81
2022/04/30 09:33:07;;;;;;;6.47;3.88;;;16.50;78.10;;;;;;5041417;28;20101;-81
2022/04/30 09:38:19;;;;;;;8.82;4.00;;;16.60;72.20;;;;;;5059077;28;20075;-83
2022/04/30 09:41:00;;;;;;;5.57;3.47;;;17.00;70.10;;;;;;5058769;28;20473;-81
2022/04/30 09:43:30;;;;;;;8.10;3.70;;;17.00;70.90;;;;;;5058092;28;20029;-82
2022/04/30 09:46:00;;;;;;;6.18;3.65;;;17.20;66.30;;;;;;5058413;28;20105;-84
2022/04/30 09:54:02;;;;;;;8.05;4.30;;;15.60;72.90;;;;;;5058276;28;20031;-84
2022/04/30 09:56:30;;;;;;;5.30;3.35;;;15.70;71.50;;;;;;5057824;28;20103;-80
2022/04/30 09:59:02;;;;;;;6.25;3.90;;;15.20;72.90;;;;;;5057506;28;20025;-83
2022/04/30 10:01:32;;;;;;;5.70;3.70;;;14.60;74.80;;;;;;5057463;28;20074;-80
2022/04/30 10:03:59;;;;;;;9.80;3.63;;;14.30;75.90;;;;;;5058880;28;20512;-84
2022/04/30 10:06:26;;;;;;;7.50;3.47;;;14.60;73.90;;;;;;5058139;28;20017;-84
2022/04/30 10:08:52;;;;;;;6.38;3.95;;;15.30;72.70;;;;;;5039494;28;20025;-82
2022/04/30 10:11:27;;;;;;;6.15;3.85;;;16.10;68.50;;;;;;5059146;28;20027;-84
2022/04/30 10:14:09;;;;;;;6.60;3.47;;;17.00;65.50;;;;;;5060052;28;20508;-83
2022/04/30 10:16:35;;;;;;;12.02;4.50;;;17.50;64.00;;;;;;5077856;28;20266;-82
2022/04/30 10:19:11;;;;;;;6.07;3.83;;;18.10;65.00;;;;;;5060852;28;20033;-83
2022/04/30 10:21:38;;;;;;;6.65;4.47;;;17.80;62.30;;;;;;5040092;28;20025;-84
2022/04/30 10:24:05;;;;;;;4.88;3.50;;;17.40;62.80;;;;;;5039642;28;20036;-82
2022/04/30 10:26:31;;;;;;;7.82;3.47;;;16.50;64.40;;;;;;5058228;28;20021;-83
2022/04/30 10:29:02;;;;;;;7.70;3.97;;;16.00;65.80;;;;;;5058372;28;20032;-83
2022/04/30 10:31:28;;;;;;;6.55;3.88;;;15.70;66.70;;;;;;5040564;28;20051;-83
2022/04/30 10:33:54;;;;;;;6.20;3.67;;;15.50;67.50;;;;;;5058541;28;20025;-84
2022/04/30 10:36:21;;;;;;;5.65;3.88;;;16.10;66.80;;;;;;5042815;28;20021;-83
2022/04/30 10:38:55;;;;;;;8.68;4.72;;;16.40;65.30;;;;;;5042795;28;20025;-84
2022/04/30 10:41:22;;;;;;;8.25;4.05;;;16.10;65.70;;;;;;5044996;28;20491;-82
2022/04/30 10:43:58;;;;;;;6.97;3.53;;;16.20;66.70;;;;;;5051248;28;20128;-82
2022/04/30 10:46:25;;;;;;;9.13;4.35;;;16.80;67.90;;;;;;5067139;28;20020;-83
2022/04/30 10:48:51;;;;;;;9.00;4.13;;;17.20;63.30;;;;;;5041792;28;20108;-83
2022/04/30 10:51:38;;;;;;;5.43;3.72;;;16.80;62.50;;;;;;5058942;28;20059;-82
2022/04/30 10:54:18;;;;;;;5.60;3.72;;;16.00;64.40;;;;;;5060691;28;20088;-81
2022/04/30 10:56:45;;;;;;;7.80;4.80;;;15.70;66.70;;;;;;5045144;28;20028;-81
2022/04/30 10:59:11;;;;;;;7.70;3.60;;;16.30;65.90;;;;;;5062648;28;20028;-83
2022/04/30 11:01:36;;;;;;;6.30;4.00;;;16.20;64.20;;;;;;5069112;28;20009;-80
2022/04/30 11:04:02;;;;;;;6.78;4.20;;;16.40;65.70;;;;;;5062065;28;20037;-83
2022/04/30 11:06:30;;;;;;;8.13;4.13;;;16.50;64.80;;;;;;5060246;28;20027;-83
2022/04/30 11:09:06;;;;;;;5.60;3.70;;;16.80;64.10;;;;;;5061758;28;20104;-81
2022/04/30 11:11:33;;;;;;;5.25;3.63;;;17.00;64.90;;;;;;5082134;28;20040;-80
2022/04/30 11:14:06;;;;;;;6.03;4.38;;;17.30;62.10;;;;;;5081895;28;20033;-82
2022/04/30 11:16:36;;;;;;;4.75;3.70;;;17.50;61.60;;;;;;5082463;28;20052;-82
2022/04/30 11:19:08;;;;;;;7.93;3.75;;;17.90;61.40;;;;;;5082758;28;20116;-83
2022/04/30 11:21:47;;;;;;;6.50;3.15;;;18.20;61.40;;;;;;5078798;28;20043;-81
2022/04/30 11:24:28;;;;;;;8.00;3.75;;;18.50;60.40;;;;;;5061695;28;20146;-81
2022/04/30 11:26:59;;;;;;;4.63;3.50;;;18.60;59.50;;;;;;5062201;28;20017;-80
2022/04/30 11:29:25;;;;;;;6.72;3.30;;;17.70;60.50;;;;;;5061483;28;20077;-82
2022/04/30 11:31:52;;;;;;;6.50;3.97;;;17.20;62.40;;;;;;5085029;28;20028;-84
2022/04/30 11:34:19;;;;;;;6.53;3.47;;;16.60;63.30;;;;;;5068536;28;20472;-85
2022/04/30 11:36:56;;;;;;;6.80;3.88;;;16.60;65.50;;;;;;5069093;28;20109;-82
2022/04/30 11:39:24;;;;;;;5.93;3.60;;;17.10;60.70;;;;;;5074508;28;20032;-85
2022/04/30 11:41:52;;;;;;;5.22;3.65;;;17.70;60.30;;;;;;5072690;28;20024;-83
2022/04/30 11:44:21;;;;;;;5.10;3.50;;;18.20;59.20;;;;;;5063905;28;20020;-83
2022/04/30 11:46:51;;;;;;;6.90;3.75;;;18.60;58.00;;;;;;5082401;28;20372;-83
2022/04/30 11:49:18;;;;;;;6.45;3.58;;;19.00;57.60;;;;;;5063128;28;20032;-84
2022/04/30 11:51:46;;;;;;;5.68;3.38;;;18.60;58.00;;;;;;5063423;28;20543;-83
2022/04/30 11:54:17;;;;;;;5.15;3.10;;;18.50;58.80;;;;;;5063565;28;20024;-81
2022/04/30 11:56:44;;;;;;;6.28;3.28;;;18.10;57.70;;;;;;5081188;28;20027;-85
2022/04/30 11:59:11;;;;;;;6.45;3.47;;;17.90;61.70;;;;;;5063962;28;20028;-84
2022/04/30 12:01:38;;;;;;;8.02;3.92;;;18.00;59.20;;;;;;5062565;28;20043;-82
2022/04/30 12:04:08;;;;;;;8.23;3.83;;;18.30;59.60;;;;;;5063356;28;20028;-86
2022/04/30 12:06:35;;;;;;;4.68;3.17;;;18.60;57.30;;;;;;5064492;28;20021;-83
2022/04/30 12:09:12;;;;;;;4.60;3.20;;;18.50;58.10;;;;;;5082820;28;20021;-81
2022/04/30 12:11:53;;;;;;;6.22;3.75;;;17.90;59.90;;;;;;5041601;28;20029;-86
2022/04/30 12:14:20;;;;;;;5.78;3.60;;;17.10;60.00;;;;;;5063160;28;20028;-84
2022/04/30 12:16:48;;;;;;;4.97;3.92;;;16.40;62.70;;;;;;5041944;28;20029;-84
2022/04/30 12:25:13;;;;;;;5.03;2.83;;;17.50;58.60;;;;;;5059240;28;20023;-84
2022/04/30 12:27:40;;;;;;;5.65;3.10;;;17.90;58.80;;;;;;5059101;28;20021;-83
2022/04/30 12:30:14;;;;;;;6.43;4.10;;;18.20;59.10;;;;;;5058885;28;20032;-82
2022/04/30 12:32:52;;;;;;;6.97;3.58;;;18.60;58.00;;;;;;5041471;28;20029;-83
2022/04/30 12:35:32;;;;;;;8.63;3.50;;;19.00;56.80;;;;;;5041318;28;20035;-83
2022/04/30 12:38:14;;;;;;;6.63;3.92;;;18.60;56.50;;;;;;5039913;28;20033;-84
2022/04/30 12:40:45;;;;;;;5.97;4.07;;;17.90;57.10;;;;;;5040193;28;20031;-82
2022/04/30 12:43:11;;;;;;;8.10;4.75;;;17.10;58.70;;;;;;5058051;28;20116;-83
2022/04/30 12:45:40;;;;;;;9.07;4.22;;;16.40;61.10;;;;;;5041025;28;20027;-83
2022/04/30 12:48:06;;;;;;;5.05;4.10;;;16.10;62.70;;;;;;5040031;28;20024;-83
2022/04/30 12:50:32;;;;;;;4.78;3.65;;;15.90;63.30;;;;;;5041161;28;20021;-84
2022/04/30 12:52:59;;;;;;;5.57;3.78;;;15.80;64.60;;;;;;5059255;28;20055;-84
2022/04/30 12:55:25;;;;;;;5.82;3.85;;;15.70;65.10;;;;;;5041072;28;20485;-84
2022/04/30 12:57:51;;;;;;;6.10;3.13;;;15.70;64.90;;;;;;5059142;28;20028;-83
2022/04/30 13:00:17;;;;;;;6.85;3.22;;;15.30;63.90;;;;;;5040654;28;20032;-85
2022/04/30 13:02:44;;;;;;;5.85;3.60;;;15.00;65.60;;;;;;5058954;28;20021;-83
2022/04/30 13:05:12;;;;;;;4.82;3.40;;;14.70;67.20;;;;;;5040909;28;20025;-84
2022/04/30 13:07:39;;;;;;;7.63;3.28;;;14.90;67.80;;;;;;5040446;28;20021;-84
2022/04/30 13:15:41;;;;;;;4.25;2.90;;;17.60;59.90;;;;;;5079640;28;20074;-84
2022/04/30 13:18:07;;;;;;;4.65;2.83;;;18.20;58.40;;;;;;5061506;28;20033;-83
2022/04/30 13:20:35;;;;;;;4.18;2.47;;;18.30;56.70;;;;;;5079411;28;20063;-84
2022/04/30 13:23:01;;;;;;;2.70;2.47;;;17.80;57.50;;;;;;5079676;28;20036;-84
2022/04/30 13:25:30;;;;;;;6.38;3.35;;;17.30;58.80;;;;;;5080139;28;20028;-83
2022/04/30 13:27:57;;;;;;;3.63;2.28;;;16.80;60.10;;;;;;5063853;28;20046;-84
2022/04/30 13:30:23;;;;;;;4.70;2.30;;;16.30;61.00;;;;;;5081705;28;20028;-83
2022/04/30 13:32:49;;;;;;;6.22;2.78;;;15.80;60.10;;;;;;5062025;28;20185;-83
2022/04/30 13:35:16;;;;;;;4.32;2.22;;;15.60;61.80;;;;;;5061583;28;20502;-84
2022/04/30 13:37:42;;;;;;;6.45;2.83;;;15.40;62.80;;;;;;5063914;28;20495;-82